Time;durP1;ratioP1;P1;durP2;ratioP2;P2;SDS_P1;SDS_P2;PMS_P1;PMS_P2;Temp;Humidity;BMP_temperature;BMP_pressure;BME280_temperature;BME280_humidity;BME280_pressure;Samples;Min_cycle;Max_cycle;Signal;HPM_P1;HPM_P2
2023/06/09 00:01:35;;;;;;;40.53;34.38;;;13.40;99.90;;;;;;5005221;28;20282;-56
2023/06/09 00:04:06;;;;;;;43.63;34.47;;;14.50;99.90;;;;;;5002399;28;20037;-56
2023/06/09 00:06:32;;;;;;;36.95;32.90;;;13.30;99.90;;;;;;5004956;28;20041;-57
2023/06/09 00:08:57;;;;;;;45.05;33.92;;;13.60;99.90;;;;;;5005232;28;20523;-56
2023/06/09 00:11:24;;;;;;;37.38;33.40;;;13.60;99.90;;;;;;5004929;28;20704;-56
2023/06/09 00:13:49;;;;;;;45.30;35.00;;;13.30;99.90;;;;;;5003996;28;20117;-56
2023/06/09 00:16:15;;;;;;;42.70;33.40;;;13.60;99.90;;;;;;5004684;28;20117;-56
2023/06/09 00:18:41;;;;;;;39.78;33.33;;;13.50;99.90;;;;;;5005518;28;20524;-56
2023/06/09 00:21:07;;;;;;;47.22;34.13;;;13.20;99.90;;;;;;5004835;28;20053;-56
2023/06/09 00:23:33;;;;;;;40.95;33.17;;;13.10;99.90;;;;;;5005221;28;20128;-56
2023/06/09 00:25:59;;;;;;;41.95;34.40;;;13.60;99.90;;;;;;4986917;28;20041;-56
2023/06/09 00:28:24;;;;;;;40.92;34.13;;;13.20;99.90;;;;;;5003989;28;20038;-56
2023/06/09 00:30:50;;;;;;;37.97;33.85;;;13.60;99.90;;;;;;5005040;28;20038;-56
2023/06/09 00:33:17;;;;;;;38.53;33.28;;;13.30;99.90;;;;;;5003642;28;20048;-56
2023/06/09 00:35:42;;;;;;;43.33;33.85;;;13.20;99.90;;;;;;5004599;28;20033;-57
2023/06/09 00:38:08;;;;;;;43.65;35.40;;;13.50;99.90;;;;;;5002645;28;20030;-56
2023/06/09 00:40:33;;;;;;;44.00;33.80;;;13.50;99.90;;;;;;5005126;28;20037;-56
2023/06/09 00:42:59;;;;;;;44.40;33.90;;;13.10;99.90;;;;;;5004418;28;20439;-56
2023/06/09 00:45:25;;;;;;;42.80;34.15;;;13.20;99.90;;;;;;5004588;28;20136;-56
2023/06/09 00:47:51;;;;;;;41.53;32.50;;;13.00;99.90;;;;;;5004321;28;20103;-56
2023/06/09 00:50:19;;;;;;;37.75;31.90;;;13.00;99.90;;;;;;5003022;28;20095;-56
2023/06/09 00:52:46;;;;;;;42.35;32.75;;;13.30;99.90;;;;;;5004491;28;20439;-56
2023/06/09 00:55:12;;;;;;;41.72;33.08;;;13.20;99.90;;;;;;5004565;28;20045;-57
2023/06/09 00:57:39;;;;;;;40.10;33.78;;;13.30;99.90;;;;;;5003765;28;20040;-56
2023/06/09 01:00:06;;;;;;;38.53;34.30;;;13.40;99.90;;;;;;5004222;28;20038;-57
2023/06/09 01:02:34;;;;;;;40.30;34.25;;;13.50;99.90;;;;;;5003054;28;20041;-56
2023/06/09 01:05:00;;;;;;;42.70;34.53;;;13.40;99.90;;;;;;5003637;28;20057;-57
2023/06/09 01:07:42;;;;;;;42.63;33.40;;;13.20;99.90;;;;;;5004456;28;20052;-56
2023/06/09 01:10:49;;;;;;;40.65;32.47;;;13.00;99.90;;;;;;5003707;28;20038;-56
2023/06/09 01:14:03;;;;;;;41.20;33.50;;;13.50;99.90;;;;;;5003437;28;20081;-57
2023/06/09 01:16:44;;;;;;;46.30;33.17;;;13.10;99.90;;;;;;4994220;28;20447;-56
2023/06/09 01:19:20;;;;;;;44.88;33.85;;;13.00;99.90;;;;;;5004531;28;20512;-56
2023/06/09 01:21:50;;;;;;;46.63;34.47;;;13.00;99.90;;;;;;5003254;28;20049;-56
2023/06/09 01:24:45;;;;;;;42.45;35.85;;;13.30;99.90;;;;;;5005075;28;20509;-56
2023/06/09 01:27:12;;;;;;;39.70;35.40;;;13.00;99.90;;;;;;5004591;28;20042;-56
2023/06/09 01:29:40;;;;;;;47.13;34.17;;;13.40;99.90;;;;;;5003610;28;20879;-57
2023/06/09 01:32:09;;;;;;;42.35;35.03;;;13.80;99.90;;;;;;5004323;28;20084;-56
2023/06/09 01:34:34;;;;;;;64.15;37.55;;;13.50;99.90;;;;;;5004267;28;20049;-57
2023/06/09 01:37:00;;;;;;;42.97;35.15;;;13.00;99.90;;;;;;5004099;28;20034;-56
2023/06/09 01:39:27;;;;;;;43.40;36.22;;;13.10;99.90;;;;;;5004157;28;20042;-56
2023/06/09 01:41:52;;;;;;;46.92;35.65;;;13.50;99.90;;;;;;5004261;28;20539;-56
2023/06/09 01:44:18;;;;;;;42.58;36.53;;;13.60;99.90;;;;;;5003849;28;20054;-56
2023/06/09 01:46:44;;;;;;;43.83;35.55;;;13.50;99.90;;;;;;5004044;28;20466;-56
2023/06/09 01:50:02;;;;;;;45.35;36.92;;;13.90;99.90;;;;;;5005292;28;20042;-56
2023/06/09 01:52:41;;;;;;;49.08;37.38;;;13.50;99.90;;;;;;4998862;28;20054;-56
2023/06/09 01:55:17;;;;;;;44.92;37.60;;;13.30;99.90;;;;;;5006753;28;20073;-56
2023/06/09 01:58:09;;;;;;;;;;;13.50;99.90;;;;;;5007533;28;20518;-56
2023/06/09 02:00:35;;;;;;;42.53;38.05;;;13.10;99.90;;;;;;4999414;28;19933;-56
2023/06/09 02:03:05;;;;;;;49.45;38.63;;;13.40;99.90;;;;;;5008254;28;20045;-56
2023/06/09 02:05:33;;;;;;;48.85;37.70;;;13.50;99.90;;;;;;5006825;28;20127;-57
2023/06/09 02:08:00;;;;;;;42.13;36.80;;;13.40;99.90;;;;;;5006710;28;20079;-56
2023/06/09 02:10:26;;;;;;;46.75;36.65;;;13.30;99.90;;;;;;5005985;28;20487;-56
2023/06/09 02:12:52;;;;;;;42.50;35.92;;;13.50;99.90;;;;;;5008117;28;20061;-56
2023/06/09 02:15:19;;;;;;;46.53;35.47;;;13.60;99.90;;;;;;5005886;28;20041;-57
2023/06/09 02:17:45;;;;;;;44.83;34.80;;;13.70;99.90;;;;;;5007688;28;20045;-56
2023/06/09 02:20:11;;;;;;;47.95;34.90;;;13.10;99.90;;;;;;5005602;28;20625;-57
2023/06/09 02:22:37;;;;;;;45.63;35.10;;;13.60;99.90;;;;;;5007428;28;20041;-56
2023/06/09 02:25:04;;;;;;;41.05;33.88;;;13.10;99.90;;;;;;5007287;28;20044;-57
2023/06/09 02:27:30;;;;;;;47.08;33.67;;;13.50;99.90;;;;;;5007997;28;20034;-56
2023/06/09 02:29:55;;;;;;;39.35;33.80;;;13.20;99.90;;;;;;5006414;28;20056;-57
2023/06/09 02:32:22;;;;;;;43.17;34.47;;;13.00;99.90;;;;;;5006035;28;20136;-56
2023/06/09 02:34:47;;;;;;;43.17;33.58;;;13.10;99.90;;;;;;5006531;28;20042;-56
2023/06/09 02:37:13;;;;;;;50.33;35.15;;;13.40;99.90;;;;;;5007521;28;20480;-56
2023/06/09 02:39:39;;;;;;;48.58;34.58;;;13.20;99.90;;;;;;5006431;28;20412;-56
2023/06/09 02:42:05;;;;;;;41.03;33.97;;;13.40;99.90;;;;;;5007174;28;20057;-56
2023/06/09 02:44:37;;;;;;;45.90;33.35;;;13.50;99.90;;;;;;5004546;28;20057;-56
2023/06/09 02:47:06;;;;;;;42.42;33.15;;;13.20;99.90;;;;;;5006188;28;20512;-56
2023/06/09 02:49:32;;;;;;;44.38;33.13;;;13.50;99.90;;;;;;5006670;28;20117;-56
2023/06/09 02:51:57;;;;;;;42.35;32.72;;;14.00;99.90;;;;;;5006312;28;20454;-57
2023/06/09 02:54:23;;;;;;;46.35;32.35;;;13.00;99.90;;;;;;5006954;28;20042;-56
2023/06/09 02:56:49;;;;;;;45.03;32.05;;;13.40;99.90;;;;;;5006501;28;20029;-56
2023/06/09 02:59:14;;;;;;;48.97;33.17;;;13.00;99.90;;;;;;5006912;28;20041;-56
2023/06/09 03:01:42;;;;;;;44.97;32.80;;;13.20;99.90;;;;;;5005081;28;20125;-56
2023/06/09 03:04:08;;;;;;;42.40;31.95;;;13.40;99.90;;;;;;5007036;28;20052;-56
2023/06/09 03:06:36;;;;;;;40.08;31.80;;;13.60;99.90;;;;;;5004667;28;20793;-56
2023/06/09 03:09:03;;;;;;;41.45;32.00;;;13.60;99.90;;;;;;5006534;28;20065;-56
2023/06/09 03:11:29;;;;;;;41.50;31.70;;;13.00;99.90;;;;;;5003628;28;20404;-56
2023/06/09 03:13:55;;;;;;;38.92;31.45;;;13.00;99.90;;;;;;5005224;28;20115;-56
2023/06/09 03:16:21;;;;;;;44.28;31.38;;;13.80;99.90;;;;;;5003789;28;20049;-57
2023/06/09 03:18:47;;;;;;;39.40;32.40;;;13.60;99.90;;;;;;5004735;28;20504;-56
2023/06/09 03:21:13;;;;;;;43.35;32.00;;;12.90;99.90;;;;;;5003967;28;20046;-57
2023/06/09 03:23:40;;;;;;;42.22;32.47;;;13.20;99.90;;;;;;5005241;28;20045;-57
2023/06/09 03:26:07;;;;;;;48.03;34.30;;;13.60;99.90;;;;;;5002541;28;20092;-56
2023/06/09 03:28:33;;;;;;;44.28;34.63;;;13.20;99.90;;;;;;5005211;28;20554;-57
2023/06/09 03:30:58;;;;;;;45.22;32.60;;;13.10;99.90;;;;;;5004089;28;20077;-56
2023/06/09 03:33:25;;;;;;;45.80;33.90;;;13.20;99.90;;;;;;5003360;28;20507;-55
2023/06/09 03:35:51;;;;;;;36.47;32.58;;;13.50;99.90;;;;;;5004035;28;20034;-57
2023/06/09 03:38:17;;;;;;;40.80;33.58;;;13.50;99.90;;;;;;5004570;28;20427;-56
2023/06/09 03:40:43;;;;;;;46.05;34.78;;;13.50;99.90;;;;;;5003737;28;20100;-56
2023/06/09 03:43:11;;;;;;;43.75;32.75;;;13.80;99.90;;;;;;5004232;28;20058;-56
2023/06/09 03:45:36;;;;;;;46.30;33.38;;;13.70;99.90;;;;;;5003395;28;20046;-56
2023/06/09 03:48:04;;;;;;;45.38;33.78;;;13.00;99.90;;;;;;5004468;28;20392;-56
2023/06/09 03:50:30;;;;;;;44.33;33.88;;;13.70;99.90;;;;;;5003112;28;20034;-56
2023/06/09 03:52:55;;;;;;;38.75;33.58;;;13.60;99.90;;;;;;5004187;28;20656;-56
2023/06/09 03:55:22;;;;;;;45.35;35.35;;;13.80;99.90;;;;;;5002884;28;20492;-56
2023/06/09 03:57:48;;;;;;;44.03;34.72;;;13.70;99.90;;;;;;5004169;28;20060;-56
2023/06/09 04:00:15;;;;;;;45.72;34.95;;;13.80;99.90;;;;;;5003357;28;20033;-56
2023/06/09 04:02:41;;;;;;;42.08;34.80;;;13.60;99.90;;;;;;5003844;28;20061;-57
2023/06/09 04:05:07;;;;;;;45.08;35.53;;;13.80;99.90;;;;;;5002980;28;20567;-57
2023/06/09 04:07:33;;;;;;;48.00;35.97;;;13.80;99.90;;;;;;5002520;28;20050;-56
2023/06/09 04:09:59;;;;;;;43.30;36.65;;;14.00;99.90;;;;;;5003366;28;20373;-56
2023/06/09 04:12:25;;;;;;;47.25;37.55;;;13.30;99.90;;;;;;5002753;28;20099;-56
2023/06/09 04:14:51;;;;;;;40.45;36.25;;;13.40;99.90;;;;;;5003942;28;20068;-57
2023/06/09 04:17:16;;;;;;;45.35;36.08;;;14.00;99.90;;;;;;5004073;28;20044;-56
2023/06/09 04:19:42;;;;;;;43.22;35.35;;;14.10;99.90;;;;;;5003601;28;20577;-57
2023/06/09 04:22:10;;;;;;;42.47;36.90;;;14.00;99.90;;;;;;5003248;28;20405;-56
2023/06/09 04:24:36;;;;;;;47.28;36.05;;;14.10;99.90;;;;;;5004005;28;20042;-56
2023/06/09 04:27:03;;;;;;;45.70;35.15;;;13.70;99.90;;;;;;5003839;28;20076;-56
2023/06/09 04:29:32;;;;;;;38.92;34.67;;;13.60;99.90;;;;;;5003894;28;20046;-56
2023/06/09 04:32:02;;;;;;;38.83;34.25;;;14.40;99.90;;;;;;5002699;28;20042;-56
2023/06/09 04:34:29;;;;;;;47.33;34.67;;;13.80;99.90;;;;;;5001966;28;20038;-56
2023/06/09 04:36:56;;;;;;;45.90;35.50;;;13.80;99.90;;;;;;5003949;28;20453;-56
2023/06/09 04:39:25;;;;;;;40.88;34.42;;;14.30;99.90;;;;;;5002030;28;20214;-57
2023/06/09 04:41:54;;;;;;;43.78;35.17;;;13.90;99.90;;;;;;5003140;28;20407;-56
2023/06/09 04:44:20;;;;;;;45.00;35.47;;;14.50;99.90;;;;;;5002158;28;20038;-56
2023/06/09 04:46:46;;;;;;;44.35;35.40;;;14.00;99.90;;;;;;5002307;28;20045;-56
2023/06/09 04:49:12;;;;;;;41.42;35.67;;;14.10;99.90;;;;;;5003041;28;20128;-56
2023/06/09 04:51:46;;;;;;;44.08;35.22;;;14.00;99.90;;;;;;5001180;28;20477;-57
2023/06/09 04:54:13;;;;;;;40.05;35.60;;;14.70;99.90;;;;;;5002656;28;20038;-56
2023/06/09 04:56:40;;;;;;;40.97;35.15;;;14.40;99.90;;;;;;5003798;28;20037;-56
2023/06/09 04:59:07;;;;;;;40.75;36.40;;;14.30;99.90;;;;;;5001235;28;20128;-56
2023/06/09 05:01:33;;;;;;;41.17;35.30;;;14.80;99.90;;;;;;5003411;28;20523;-56
2023/06/09 05:04:00;;;;;;;45.72;36.13;;;14.70;99.90;;;;;;5002105;28;20058;-57
2023/06/09 05:06:26;;;;;;;50.33;37.83;;;14.30;99.90;;;;;;5002244;28;20129;-57
2023/06/09 05:08:51;;;;;;;41.58;36.65;;;14.70;99.90;;;;;;5002912;28;20071;-56
2023/06/09 05:11:17;;;;;;;40.83;36.50;;;14.90;99.90;;;;;;5003372;28;20048;-56
2023/06/09 05:13:42;;;;;;;43.08;36.63;;;14.60;99.90;;;;;;5002910;28;20052;-57
2023/06/09 05:16:08;;;;;;;41.22;36.80;;;14.60;99.90;;;;;;5003559;28;20041;-57
2023/06/09 05:18:33;;;;;;;42.00;36.13;;;14.80;99.90;;;;;;5001208;28;20065;-56
2023/06/09 05:20:59;;;;;;;45.05;36.92;;;14.70;99.90;;;;;;5017728;28;20057;-57
2023/06/09 05:23:25;;;;;;;45.20;37.67;;;14.70;99.90;;;;;;5003107;28;20128;-57
2023/06/09 05:25:51;;;;;;;44.47;37.05;;;15.10;99.90;;;;;;5006136;28;20111;-56
2023/06/09 05:28:16;;;;;;;44.40;37.85;;;15.30;99.90;;;;;;5006180;28;20056;-56
2023/06/09 05:30:42;;;;;;;43.00;37.08;;;16.10;99.90;;;;;;5005976;28;20046;-56
2023/06/09 05:33:07;;;;;;;44.75;37.13;;;15.30;99.90;;;;;;5007078;28;20050;-57
2023/06/09 05:35:33;;;;;;;47.30;37.28;;;15.00;99.90;;;;;;5005712;28;20423;-57
2023/06/09 05:37:58;;;;;;;45.20;36.97;;;15.40;99.90;;;;;;5007052;28;20532;-57
2023/06/09 05:40:24;;;;;;;48.15;36.05;;;15.30;99.90;;;;;;5006139;28;20045;-56
2023/06/09 05:42:50;;;;;;;40.67;35.85;;;15.20;99.90;;;;;;5004614;28;20064;-57
2023/06/09 05:45:15;;;;;;;44.35;35.92;;;15.40;99.90;;;;;;5006390;28;20492;-56
2023/06/09 05:47:41;;;;;;;42.10;35.45;;;15.40;99.90;;;;;;5005169;28;20042;-57
2023/06/09 05:50:07;;;;;;;48.35;36.45;;;15.30;99.90;;;;;;5005709;28;20092;-57
2023/06/09 05:52:33;;;;;;;45.78;36.53;;;15.70;99.90;;;;;;5004673;28;20056;-56
2023/06/09 05:55:00;;;;;;;42.78;35.58;;;15.40;99.90;;;;;;5006360;28;20034;-57
2023/06/09 05:57:29;;;;;;;46.13;35.47;;;16.80;99.90;;;;;;5004628;28;20127;-57
2023/06/09 05:59:56;;;;;;;43.13;34.58;;;15.80;99.90;;;;;;5005214;28;20048;-57
2023/06/09 06:02:22;;;;;;;43.35;34.78;;;15.80;99.90;;;;;;5004994;28;20038;-57
2023/06/09 06:04:47;;;;;;;40.08;35.03;;;15.70;99.90;;;;;;5005646;28;20033;-57
2023/06/09 06:07:16;;;;;;;44.47;35.60;;;16.10;99.90;;;;;;5006014;28;20049;-57
2023/06/09 06:09:41;;;;;;;39.95;34.70;;;15.90;99.90;;;;;;5005353;28;20045;-56
2023/06/09 06:12:07;;;;;;;39.80;35.38;;;15.90;99.90;;;;;;5006316;28;20407;-57
2023/06/09 06:14:33;;;;;;;39.45;35.13;;;16.00;99.90;;;;;;5004497;28;20191;-57
2023/06/09 06:16:58;;;;;;;44.88;36.38;;;16.30;99.90;;;;;;5005501;28;20115;-58
2023/06/09 06:19:24;;;;;;;47.83;35.92;;;16.40;99.90;;;;;;5005956;28;20033;-58
2023/06/09 06:21:50;;;;;;;40.65;35.67;;;16.30;99.90;;;;;;5008427;28;20128;-57
2023/06/09 06:24:15;;;;;;;43.30;35.92;;;16.40;99.90;;;;;;5009200;28;20048;-57
2023/06/09 06:26:41;;;;;;;41.97;35.17;;;16.30;99.90;;;;;;5008544;28;20575;-57
2023/06/09 06:29:07;;;;;;;39.97;34.38;;;16.70;99.90;;;;;;5009015;28;20073;-57
2023/06/09 06:31:32;;;;;;;39.05;33.88;;;16.60;99.90;;;;;;5008333;28;20081;-57
2023/06/09 06:33:58;;;;;;;43.85;34.10;;;16.60;99.90;;;;;;5004907;28;20065;-57
2023/06/09 06:36:26;;;;;;;39.13;33.47;;;16.70;99.90;;;;;;5000916;28;20030;-57
2023/06/09 06:38:51;;;;;;;42.33;34.80;;;16.60;99.90;;;;;;5008521;28;20416;-57
2023/06/09 06:41:17;;;;;;;42.80;33.47;;;17.50;99.90;;;;;;5008380;28;20073;-57
2023/06/09 06:43:43;;;;;;;39.58;33.70;;;17.10;99.90;;;;;;5008162;28;20061;-57
2023/06/09 06:46:11;;;;;;;39.17;34.25;;;17.40;99.90;;;;;;5007555;28;20058;-57
2023/06/09 06:48:38;;;;;;;39.50;35.17;;;17.30;99.90;;;;;;5008459;28;20033;-57
2023/06/09 06:51:07;;;;;;;40.35;34.83;;;17.70;99.90;;;;;;5007796;28;20054;-57
2023/06/09 06:53:33;;;;;;;39.97;34.95;;;17.60;99.90;;;;;;5005505;28;20524;-57
2023/06/09 06:55:59;;;;;;;37.97;33.97;;;17.70;1.00;;;;;;5006835;28;20061;-57
2023/06/09 06:58:27;;;;;;;40.38;33.95;;;17.80;43.50;;;;;;5008102;28;20038;-57
2023/06/09 07:00:56;;;;;;;42.47;34.50;;;17.80;99.90;;;;;;5006441;28;20076;-57
2023/06/09 07:03:24;;;;;;;39.42;33.95;;;17.90;99.90;;;;;;5008124;28;20048;-57
2023/06/09 07:05:50;;;;;;;43.15;34.42;;;18.20;1.00;;;;;;5007320;28;20046;-57
2023/06/09 07:08:16;;;;;;;37.88;33.80;;;18.30;99.90;;;;;;5008123;28;20120;-57
2023/06/09 07:10:42;;;;;;;42.05;34.13;;;18.50;99.90;;;;;;5008332;28;20125;-57
2023/06/09 07:13:07;;;;;;;38.13;32.70;;;18.50;52.60;;;;;;5008011;28;20045;-57
2023/06/09 07:15:33;;;;;;;35.13;31.45;;;18.60;99.90;;;;;;5008341;28;20060;-57
2023/06/09 07:17:58;;;;;;;35.25;31.48;;;18.60;41.40;;;;;;5008548;28;20034;-58
2023/06/09 07:20:24;;;;;;;39.88;33.53;;;18.90;99.90;;;;;;5007879;28;20038;-57
2023/06/09 07:22:53;;;;;;;38.75;32.88;;;19.20;99.90;;;;;;5022849;28;20188;-58
2023/06/09 07:25:19;;;;;;;38.55;33.50;;;19.00;1.00;;;;;;5022675;28;20041;-58
2023/06/09 07:27:45;;;;;;;37.95;33.88;;;19.10;99.90;;;;;;5007686;28;20046;-57
2023/06/09 07:30:11;;;;;;;36.30;32.47;;;19.50;1.00;;;;;;5007497;28;20049;-58
2023/06/09 07:32:39;;;;;;;40.80;34.25;;;19.50;1.00;;;;;;5005996;28;20471;-58
2023/06/09 07:35:05;;;;;;;42.60;33.58;;;19.60;99.90;;;;;;5006428;28;20046;-58
2023/06/09 07:37:38;;;;;;;37.75;33.38;;;19.60;99.90;;;;;;5007483;28;20178;-58
2023/06/09 07:40:05;;;;;;;43.13;33.65;;;19.70;18.60;;;;;;5006492;28;20033;-57
2023/06/09 07:42:31;;;;;;;40.72;33.92;;;19.70;1.00;;;;;;5007050;28;20502;-57
2023/06/09 07:44:56;;;;;;;39.83;35.00;;;19.90;99.90;;;;;;5005756;28;20053;-58
2023/06/09 07:47:22;;;;;;;41.45;34.63;;;19.90;99.90;;;;;;5004557;28;20519;-57
2023/06/09 07:49:47;;;;;;;37.50;32.80;;;20.00;99.90;;;;;;5006987;28;20436;-57
2023/06/09 07:52:13;;;;;;;38.03;33.90;;;20.20;99.90;;;;;;5007068;28;20042;-58
2023/06/09 07:54:38;;;;;;;38.33;34.15;;;20.50;55.10;;;;;;5006912;28;20034;-58
2023/06/09 07:57:05;;;;;;;39.13;34.95;;;20.40;51.90;;;;;;5007164;28;20057;-57
2023/06/09 07:59:31;;;;;;;38.83;34.55;;;20.70;5.50;;;;;;5004967;28;20096;-57
2023/06/09 08:01:57;;;;;;;39.17;34.13;;;20.80;1.00;;;;;;5002785;28;20073;-58
2023/06/09 08:04:22;;;;;;;43.35;33.17;;;20.90;1.00;;;;;;5007066;28;20092;-58
2023/06/09 08:06:48;;;;;;;35.72;32.17;;;21.00;99.90;;;;;;5005997;28;20048;-58
2023/06/09 08:09:14;;;;;;;35.72;32.15;;;21.10;99.90;;;;;;5006965;28;20422;-58
2023/06/09 08:11:40;;;;;;;36.53;32.70;;;21.10;99.90;;;;;;5005384;28;20045;-58
2023/06/09 08:14:06;;;;;;;37.35;33.00;;;21.30;99.90;;;;;;5006836;28;20111;-57
2023/06/09 08:16:32;;;;;;;39.97;32.08;;;21.50;99.90;;;;;;5007177;28;20042;-58
2023/06/09 08:18:57;;;;;;;34.95;30.85;;;21.60;99.90;;;;;;5007552;28;20036;-58
2023/06/09 08:21:23;;;;;;;35.83;31.98;;;21.60;62.90;;;;;;5004525;28;20042;-58
2023/06/09 08:23:49;;;;;;;36.28;31.00;;;21.70;29.30;;;;;;5004446;28;20133;-58
2023/06/09 08:26:14;;;;;;;38.25;31.70;;;21.80;25.80;;;;;;5007213;28;20041;-58
2023/06/09 08:28:40;;;;;;;36.35;31.85;;;22.00;1.00;;;;;;5005314;28;20137;-58
2023/06/09 08:31:07;;;;;;;35.05;31.38;;;21.70;1.00;;;;;;5006200;28;20495;-58
2023/06/09 08:33:33;;;;;;;34.15;30.55;;;22.10;1.00;;;;;;5006365;28;20074;-58
2023/06/09 08:36:02;;;;;;;35.40;31.75;;;22.30;1.00;;;;;;5006351;28;20038;-58
2023/06/09 08:38:28;;;;;;;36.17;32.53;;;22.10;1.00;;;;;;5006641;28;20055;-58
2023/06/09 08:40:58;;;;;;;33.90;30.42;;;22.10;1.00;;;;;;5006162;28;20038;-58
2023/06/09 08:43:25;;;;;;;36.40;31.58;;;22.30;1.00;;;;;;5004264;28;20062;-58
2023/06/09 08:45:53;;;;;;;32.50;29.15;;;22.40;1.00;;;;;;5002890;28;20400;-57
2023/06/09 08:48:20;;;;;;;36.78;29.15;;;22.40;99.90;;;;;;5000523;28;20069;-58
2023/06/09 08:50:46;;;;;;;32.78;29.40;;;22.30;99.90;;;;;;5005482;28;20042;-58
2023/06/09 08:53:13;;;;;;;32.53;29.25;;;22.50;99.90;;;;;;5006136;28;20038;-58
2023/06/09 08:55:39;;;;;;;33.25;28.55;;;22.40;99.90;;;;;;5005536;28;20029;-59
2023/06/09 08:58:04;;;;;;;34.13;29.25;;;22.60;99.90;;;;;;5006348;28;20530;-58
2023/06/09 09:00:31;;;;;;;32.15;28.88;;;22.50;99.90;;;;;;5004561;28;20424;-58
2023/06/09 09:02:57;;;;;;;31.88;28.45;;;22.90;99.90;;;;;;5005943;28;20050;-58
2023/06/09 09:05:22;;;;;;;33.28;29.52;;;22.90;99.90;;;;;;5005829;28;20045;-58
2023/06/09 09:07:49;;;;;;;34.67;27.63;;;22.90;99.90;;;;;;5006085;28;20053;-58
2023/06/09 09:10:15;;;;;;;30.83;27.30;;;23.00;99.90;;;;;;5005873;28;20050;-58
2023/06/09 09:12:51;;;;;;;31.20;27.35;;;23.20;99.90;;;;;;5006367;28;20044;-58
2023/06/09 09:15:18;;;;;;;30.00;26.83;;;23.30;99.90;;;;;;5005765;28;20038;-58
2023/06/09 09:17:46;;;;;;;39.55;28.92;;;23.40;99.90;;;;;;5006130;28;20540;-58
2023/06/09 09:20:14;;;;;;;38.70;30.52;;;23.40;99.90;;;;;;5005750;28;20049;-58
2023/06/09 09:22:58;;;;;;;33.58;29.98;;;23.80;99.90;;;;;;5005458;28;20088;-58
2023/06/09 09:25:28;;;;;;;35.25;31.52;;;23.80;99.90;;;;;;5005651;28;20038;-58
2023/06/09 09:28:11;;;;;;;63.25;56.90;;;23.90;99.90;;;;;;5002496;28;20504;-58
2023/06/09 09:30:45;;;;;;;64.22;57.60;;;24.00;99.90;;;;;;5001967;28;20046;-58
2023/06/09 09:33:23;;;;;;;71.95;64.97;;;23.80;99.90;;;;;;5005699;28;20412;-58
2023/06/09 09:35:53;;;;;;;74.10;66.07;;;23.90;99.90;;;;;;5003796;28;20049;-58
2023/06/09 09:38:21;;;;;;;73.75;63.25;;;24.30;99.90;;;;;;5004965;28;20069;-58
2023/06/09 09:40:52;;;;;;;78.10;66.57;;;24.00;99.90;;;;;;5005976;28;20096;-58
2023/06/09 09:43:19;;;;;;;80.63;70.63;;;24.30;99.90;;;;;;5005231;28;20065;-58
2023/06/09 09:45:46;;;;;;;84.57;75.28;;;24.40;99.90;;;;;;5005338;28;20046;-58
2023/06/09 09:48:14;;;;;;;89.45;79.65;;;24.50;99.90;;;;;;5005144;28;20042;-59
2023/06/09 09:50:42;;;;;;;93.82;84.00;;;24.70;99.90;;;;;;5005433;28;20061;-58
2023/06/09 09:53:08;;;;;;;99.35;87.35;;;24.70;99.90;;;;;;5005726;28;20042;-58
2023/06/09 09:55:36;;;;;;;97.07;87.10;;;24.80;99.90;;;;;;5004711;28;20084;-58
2023/06/09 09:58:07;;;;;;;105.88;94.88;;;24.70;99.40;;;;;;5005677;28;20404;-58
2023/06/09 10:00:35;;;;;;;108.97;97.78;;;24.70;96.80;;;;;;5003645;28;20069;-58
2023/06/09 10:03:06;;;;;;;107.72;96.75;;;24.90;94.20;;;;;;5005357;28;20118;-59
2023/06/09 10:05:35;;;;;;;80.78;73.55;;;24.70;92.50;;;;;;5005150;28;20698;-59
2023/06/09 10:08:03;;;;;;;75.47;69.03;;;24.70;90.80;;;;;;5004628;28;20045;-59
2023/06/09 10:10:30;;;;;;;59.28;54.15;;;24.80;91.20;;;;;;5004970;28;20042;-58
2023/06/09 10:12:57;;;;;;;51.78;46.67;;;24.80;86.30;;;;;;5009336;28;20068;-58
2023/06/09 10:15:23;;;;;;;44.03;39.78;;;24.90;89.20;;;;;;5008755;28;20106;-58
2023/06/09 10:17:53;;;;;;;49.42;44.63;;;25.10;90.40;;;;;;5009842;28;20042;-58
2023/06/09 10:20:19;;;;;;;32.47;28.35;;;25.40;85.40;;;;;;5009024;28;20052;-59
2023/06/09 10:22:46;;;;;;;30.48;27.50;;;25.40;71.10;;;;;;5008957;28;20037;-58
2023/06/09 10:25:12;;;;;;;22.67;20.17;;;25.50;62.90;;;;;;5006308;28;20088;-58
2023/06/09 10:27:38;;;;;;;23.38;20.02;;;25.50;57.30;;;;;;5004906;28;20038;-58
2023/06/09 10:30:05;;;;;;;20.83;12.27;;;25.80;46.40;;;;;;5004743;28;20050;-59
2023/06/09 10:32:35;;;;;;;18.00;11.65;;;25.60;50.70;;;;;;5006595;28;20534;-58
2023/06/09 10:35:02;;;;;;;20.30;10.45;;;25.60;37.80;;;;;;5008722;28;20073;-59
2023/06/09 10:37:33;;;;;;;18.25;10.20;;;25.50;39.90;;;;;;5006528;28;20037;-61
2023/06/09 10:40:24;;;;;;;18.27;9.13;;;25.40;37.80;;;;;;5003913;28;20464;-62
2023/06/09 10:43:09;;;;;;;16.38;9.63;;;25.30;27.50;;;;;;5008038;28;20070;-62
2023/06/09 10:45:55;;;;;;;19.67;9.73;;;25.40;30.80;;;;;;5005286;28;20104;-62
2023/06/09 10:48:42;;;;;;;18.75;9.27;;;25.10;30.30;;;;;;5007945;28;20049;-61
2023/06/09 10:51:26;;;;;;;17.77;9.75;;;25.00;30.70;;;;;;5008207;28;20042;-62
2023/06/09 10:54:10;;;;;;;19.55;9.60;;;24.90;31.30;;;;;;5008794;28;20473;-61
2023/06/09 10:56:35;;;;;;;21.02;9.73;;;24.90;34.30;;;;;;5008518;28;20033;-62
2023/06/09 10:59:01;;;;;;;19.27;9.70;;;25.00;42.20;;;;;;5008284;28;20535;-62
2023/06/09 11:01:26;;;;;;;26.55;10.27;;;25.00;35.40;;;;;;5007746;28;20523;-62
2023/06/09 11:03:52;;;;;;;23.15;10.80;;;25.00;45.20;;;;;;5007928;28;20411;-61
2023/06/09 11:06:17;;;;;;;19.98;10.60;;;25.00;50.70;;;;;;5008603;28;20044;-61
2023/06/09 11:09:14;;;;;;;24.77;12.27;;;25.10;43.10;;;;;;5006267;28;20053;-61
2023/06/09 11:11:50;;;;;;;25.55;10.85;;;25.10;65.60;;;;;;5007348;28;20400;-61
2023/06/09 11:14:52;;;;;;;19.65;10.65;;;25.30;64.70;;;;;;5007040;28;20452;-62
2023/06/09 11:17:25;;;;;;;20.70;11.63;;;25.20;44.90;;;;;;4991370;28;20073;-61
2023/06/09 11:19:52;;;;;;;22.67;10.50;;;25.20;53.20;;;;;;5004883;28;20507;-62
2023/06/09 11:22:18;;;;;;;18.38;10.57;;;25.20;73.80;;;;;;5003811;28;20049;-62
2023/06/09 11:24:48;;;;;;;24.73;10.23;;;25.20;56.80;;;;;;5000189;28;20042;-62
2023/06/09 11:27:18;;;;;;;19.08;9.00;;;25.20;59.20;;;;;;5002343;28;20046;-62
2023/06/09 11:29:44;;;;;;;27.17;8.85;;;25.10;59.50;;;;;;5018968;28;20045;-62
2023/06/09 11:32:12;;;;;;;23.30;8.18;;;25.00;73.40;;;;;;5005004;28;20038;-61
2023/06/09 11:34:55;;;;;;;21.88;7.78;;;25.00;80.00;;;;;;5004166;28;20042;-62
2023/06/09 11:37:22;;;;;;;22.98;9.23;;;25.00;75.50;;;;;;5004643;28;20045;-62
2023/06/09 11:39:48;;;;;;;22.63;8.98;;;25.00;91.60;;;;;;5002400;28;20200;-62
2023/06/09 11:42:14;;;;;;;18.73;9.05;;;25.10;94.20;;;;;;5004311;28;20054;-61
2023/06/09 11:44:40;;;;;;;25.50;9.10;;;25.00;93.00;;;;;;5003621;28;20050;-63
2023/06/09 11:47:27;;;;;;;22.73;8.55;;;25.40;99.90;;;;;;5004330;28;20042;-62
2023/06/09 11:50:05;;;;;;;17.20;8.68;;;25.00;96.60;;;;;;5002089;28;20095;-61
2023/06/09 11:52:32;;;;;;;20.70;8.90;;;24.90;99.90;;;;;;5004551;28;20038;-62
2023/06/09 11:55:01;;;;;;;19.55;8.98;;;25.00;99.90;;;;;;5002932;28;20061;-61
2023/06/09 11:57:27;;;;;;;21.98;8.60;;;25.40;99.90;;;;;;5002357;28;20065;-61
2023/06/09 11:59:53;;;;;;;24.00;8.93;;;25.00;99.90;;;;;;5003205;28;20111;-61
2023/06/09 12:02:19;;;;;;;19.00;9.30;;;25.00;99.90;;;;;;5004564;28;20100;-61
2023/06/09 12:04:45;;;;;;;19.35;8.90;;;24.80;99.90;;;;;;5002115;28;20050;-62
2023/06/09 12:07:15;;;;;;;20.83;9.25;;;24.50;99.90;;;;;;5003836;28;20124;-61
2023/06/09 12:09:42;;;;;;;22.02;9.07;;;24.70;99.90;;;;;;5003656;28;20404;-62
2023/06/09 12:12:08;;;;;;;18.88;8.90;;;24.70;99.90;;;;;;5003334;28;20033;-61
2023/06/09 12:14:34;;;;;;;27.48;8.98;;;24.60;99.90;;;;;;5004147;28;20100;-63
2023/06/09 12:16:59;;;;;;;22.52;8.68;;;24.40;99.90;;;;;;5003005;28;20038;-61
2023/06/09 12:19:25;;;;;;;18.73;8.82;;;24.50;99.90;;;;;;5003234;28;20057;-61
2023/06/09 12:21:51;;;;;;;22.92;9.07;;;24.50;99.90;;;;;;5003998;28;20042;-61
2023/06/09 12:24:18;;;;;;;22.52;9.02;;;24.60;99.90;;;;;;4998349;28;20466;-61
2023/06/09 12:26:44;;;;;;;23.05;8.57;;;24.70;99.90;;;;;;5003755;28;20050;-61
2023/06/09 12:29:10;;;;;;;21.58;8.70;;;24.60;99.90;;;;;;5002824;28;20064;-61
2023/06/09 12:31:45;;;;;;;21.45;9.40;;;24.60;99.90;;;;;;5003144;28;20514;-61
2023/06/09 12:34:30;;;;;;;20.27;9.48;;;24.60;99.90;;;;;;5005049;28;20132;-61